createdAt,value
2023-05-15T00:00:54.011Z,8.55
2023-05-15T00:03:22.014Z,10.82
2023-05-15T00:05:49.582Z,9.90
2023-05-15T00:08:17.544Z,12.70
2023-05-15T00:10:53.954Z,12.73
2023-05-15T00:13:28.230Z,13.60
2023-05-15T00:15:55.740Z,10.93
2023-05-15T00:18:23.246Z,14.05
2023-05-15T00:20:51.013Z,13.35
2023-05-15T00:23:18.455Z,12.15
2023-05-15T00:25:45.999Z,12.80
2023-05-15T00:28:13.559Z,13.57
2023-05-15T00:30:40.994Z,11.00
2023-05-15T00:33:08.591Z,11.52
2023-05-15T00:35:37.560Z,15.45
2023-05-15T00:38:05.001Z,12.98
2023-05-15T00:40:33.072Z,11.73
2023-05-15T00:43:01.211Z,19.20
2023-05-15T00:45:30.082Z,14.15
2023-05-15T00:47:59.533Z,15.57
2023-05-15T00:50:26.996Z,13.95
2023-05-15T00:52:54.410Z,14.75
2023-05-15T00:55:23.245Z,14.38
2023-05-15T00:57:51.414Z,15.38
2023-05-15T01:00:20.955Z,15.25
2023-05-15T01:02:48.878Z,14.57
2023-05-15T01:05:16.416Z,14.73
2023-05-15T01:07:53.192Z,16.65
2023-05-15T01:10:20.690Z,16.73
2023-05-15T01:12:48.295Z,18.08
2023-05-15T01:15:15.781Z,17.92
2023-05-15T01:17:45.697Z,15.80
2023-05-15T01:20:13.572Z,15.57
2023-05-15T01:22:43.974Z,15.80
2023-05-15T01:25:30.173Z,16.08
2023-05-15T01:28:03.996Z,19.35
2023-05-15T01:30:33.325Z,17.48
2023-05-15T01:33:09.836Z,16.23
2023-05-15T01:35:37.479Z,15.70
2023-05-15T01:38:16.740Z,15.48
2023-05-15T01:40:45.944Z,15.32
2023-05-15T01:43:16.771Z,14.85
2023-05-15T01:45:44.386Z,18.95
2023-05-15T01:48:13.488Z,16.52
2023-05-15T01:50:42.016Z,17.27
2023-05-15T01:53:10.656Z,18.75
2023-05-15T01:55:39.597Z,20.83
2023-05-15T01:58:07.526Z,20.00
2023-05-15T02:00:35.585Z,22.35
2023-05-15T02:03:04.177Z,20.92
2023-05-15T02:05:31.996Z,19.77
2023-05-15T02:08:00.418Z,19.67
2023-05-15T02:10:28.346Z,19.80
2023-05-15T02:12:55.948Z,17.30
2023-05-15T02:15:24.345Z,18.85
2023-05-15T02:17:51.975Z,19.10
2023-05-15T02:20:19.547Z,16.70
2023-05-15T02:22:47.005Z,19.88
2023-05-15T02:25:16.149Z,20.17
2023-05-15T02:27:49.417Z,19.42
2023-05-15T02:30:35.570Z,20.90
2023-05-15T02:33:29.355Z,20.95
2023-05-15T02:36:03.799Z,21.35
2023-05-15T02:38:34.112Z,19.05
2023-05-15T02:41:02.111Z,17.88
2023-05-15T02:43:30.398Z,18.25
2023-05-15T02:45:57.995Z,19.38
2023-05-15T02:48:25.992Z,17.95
2023-05-15T02:50:53.702Z,17.25
2023-05-15T02:53:21.200Z,18.75
2023-05-15T02:55:48.625Z,18.08
2023-05-15T02:58:16.082Z,18.42
2023-05-15T03:00:43.575Z,19.45
2023-05-15T03:03:11.394Z,19.55
2023-05-15T03:05:38.939Z,21.48
2023-05-15T03:08:06.707Z,20.63
2023-05-15T03:10:34.182Z,22.30
2023-05-15T03:13:02.231Z,18.30
2023-05-15T03:15:29.602Z,21.92
2023-05-15T03:17:57.208Z,21.17
2023-05-15T03:20:24.795Z,21.05
2023-05-15T03:22:52.240Z,20.85
2023-05-15T03:25:19.705Z,16.52
2023-05-15T03:27:47.108Z,18.48
2023-05-15T03:30:14.631Z,19.77
2023-05-15T03:32:42.344Z,21.02
2023-05-15T03:35:10.346Z,17.92
2023-05-15T03:37:37.762Z,16.95
2023-05-15T03:40:05.600Z,18.35
2023-05-15T03:42:33.133Z,21.65
2023-05-15T03:45:00.736Z,18.27
2023-05-15T03:47:28.289Z,21.33
2023-05-15T03:49:55.740Z,21.30
2023-05-15T03:52:23.152Z,21.63
2023-05-15T03:54:51.113Z,20.55
2023-05-15T03:57:19.042Z,24.13
2023-05-15T03:59:46.638Z,24.75
2023-05-15T04:02:14.049Z,21.30
2023-05-15T04:04:41.543Z,25.20
2023-05-15T04:07:09.193Z,22.70
2023-05-15T04:09:36.708Z,20.50
2023-05-15T04:12:04.226Z,20.35
2023-05-15T04:14:31.672Z,21.40
2023-05-15T04:16:59.235Z,21.70
2023-05-15T04:19:26.690Z,21.05
2023-05-15T04:21:54.151Z,20.05
2023-05-15T04:24:21.610Z,18.50
2023-05-15T04:26:49.243Z,19.15
2023-05-15T04:29:16.845Z,20.67
2023-05-15T04:31:44.458Z,17.20
2023-05-15T04:34:11.940Z,18.45
2023-05-15T04:36:40.737Z,17.77
2023-05-15T04:39:10.037Z,19.02
2023-05-15T04:41:37.403Z,22.23
2023-05-15T04:44:04.863Z,18.48
2023-05-15T04:46:34.990Z,17.58
2023-05-15T04:49:02.502Z,19.30
2023-05-15T04:51:29.968Z,19.00
2023-05-15T04:53:57.364Z,20.08
2023-05-15T04:56:24.759Z,19.17
2023-05-15T04:58:52.270Z,17.40
2023-05-15T05:01:19.681Z,18.58
2023-05-15T05:03:47.328Z,17.45
2023-05-15T05:06:15.053Z,16.42
2023-05-15T05:08:42.669Z,17.65
2023-05-15T05:11:10.185Z,15.88
2023-05-15T05:13:37.528Z,21.55
2023-05-15T05:16:05.230Z,18.23
2023-05-15T05:18:32.687Z,17.83
2023-05-15T05:21:09.220Z,15.57
2023-05-15T05:23:36.907Z,16.13
2023-05-15T05:26:06.081Z,17.10
2023-05-15T05:28:33.608Z,16.20
2023-05-15T05:31:02.657Z,16.73
2023-05-15T05:33:30.202Z,17.67
2023-05-15T05:35:57.673Z,17.08
2023-05-15T05:38:26.551Z,15.55
2023-05-15T05:40:54.325Z,16.55
2023-05-15T05:43:21.806Z,19.05
2023-05-15T05:45:49.263Z,15.95
2023-05-15T05:48:16.806Z,17.80
2023-05-15T05:50:44.266Z,17.23
2023-05-15T05:53:11.803Z,17.40
2023-05-15T05:55:39.285Z,19.23
2023-05-15T05:58:14.722Z,19.52
2023-05-15T06:00:51.911Z,18.25
2023-05-15T06:03:19.614Z,19.08
2023-05-15T06:05:47.573Z,18.73
2023-05-15T06:08:15.462Z,30.88
2023-05-15T06:10:43.067Z,21.55
2023-05-15T06:13:10.516Z,23.90
2023-05-15T06:15:38.205Z,23.10
2023-05-15T06:18:06.241Z,28.30
2023-05-15T06:20:33.685Z,23.98
2023-05-15T06:23:01.277Z,23.13
2023-05-15T06:25:28.825Z,24.50
2023-05-15T06:27:56.455Z,20.20
2023-05-15T06:30:24.138Z,22.25
2023-05-15T06:32:52.046Z,23.20
2023-05-15T06:35:19.596Z,22.35
2023-05-15T06:37:50.518Z,23.00
2023-05-15T06:40:18.072Z,19.08
2023-05-15T06:42:45.783Z,18.70
2023-05-15T06:45:13.342Z,17.65
2023-05-15T06:47:40.935Z,18.35
2023-05-15T06:50:08.621Z,16.20
2023-05-15T06:52:36.020Z,13.23
2023-05-15T06:55:03.558Z,16.55
2023-05-15T06:57:30.987Z,15.57
2023-05-15T06:59:58.396Z,19.33
2023-05-15T07:02:26.286Z,14.00
2023-05-15T07:04:53.872Z,13.10
2023-05-15T07:07:21.278Z,13.50
2023-05-15T07:09:50.365Z,16.40
2023-05-15T07:12:17.789Z,14.30
2023-05-15T07:14:45.324Z,13.18
2023-05-15T07:17:12.774Z,15.25
2023-05-15T07:19:40.309Z,13.50
2023-05-15T07:22:07.963Z,13.20
2023-05-15T07:24:35.420Z,17.40
2023-05-15T07:27:03.243Z,13.60
2023-05-15T07:29:31.150Z,12.43
2023-05-15T07:31:58.582Z,12.65
2023-05-15T07:34:26.086Z,12.55
2023-05-15T07:36:53.582Z,11.82
2023-05-15T07:39:21.168Z,15.07
2023-05-15T07:41:48.644Z,10.07
2023-05-15T07:44:16.323Z,13.98
2023-05-15T07:46:45.597Z,11.40
2023-05-15T07:49:15.458Z,13.45
2023-05-15T07:51:42.939Z,10.25
2023-05-15T07:54:10.503Z,10.10
2023-05-15T07:56:38.162Z,11.00
2023-05-15T07:59:05.565Z,11.15
2023-05-15T08:01:33.103Z,10.18
2023-05-15T08:04:00.782Z,11.45
2023-05-15T08:06:28.645Z,10.43
2023-05-15T08:08:56.209Z,11.30
2023-05-15T08:11:23.657Z,10.95
2023-05-15T08:13:51.348Z,12.82
2023-05-15T08:16:19.548Z,11.85
2023-05-15T08:18:47.172Z,10.85
2023-05-15T08:21:14.745Z,12.00
2023-05-15T08:23:42.307Z,13.30
2023-05-15T08:26:09.826Z,12.00
2023-05-15T08:28:37.229Z,13.70
2023-05-15T08:31:04.791Z,13.70
2023-05-15T08:33:32.322Z,12.50
2023-05-15T08:35:59.847Z,10.68
2023-05-15T08:38:27.258Z,12.65
2023-05-15T08:40:55.598Z,13.70
2023-05-15T08:43:23.578Z,10.10
2023-05-15T08:45:51.636Z,9.88
2023-05-15T08:48:22.080Z,11.00
2023-05-15T08:50:49.789Z,11.80
2023-05-15T08:53:17.280Z,12.68
2023-05-15T08:55:45.292Z,15.65
2023-05-15T08:58:13.269Z,11.95
2023-05-15T09:00:40.911Z,10.73
2023-05-15T09:03:14.737Z,8.63
2023-05-15T09:05:42.378Z,11.07
2023-05-15T09:08:09.844Z,11.07
2023-05-15T09:10:37.479Z,10.77
2023-05-15T09:13:07.613Z,11.07
2023-05-15T09:15:35.270Z,13.38
2023-05-15T09:18:02.928Z,13.45
2023-05-15T09:20:32.137Z,9.30
2023-05-15T09:23:00.339Z,11.23
2023-05-15T09:25:41.711Z,12.13
2023-05-15T09:28:10.829Z,11.02
2023-05-15T09:30:39.126Z,11.27
2023-05-15T09:33:07.045Z,10.10
2023-05-15T09:35:35.808Z,11.57
2023-05-15T09:38:04.479Z,11.75
2023-05-15T09:40:32.794Z,7.97
2023-05-15T09:43:00.659Z,7.50
2023-05-15T09:45:30.239Z,7.60
2023-05-15T09:48:00.866Z,6.00
2023-05-15T09:50:34.277Z,5.60
2023-05-15T09:53:01.938Z,8.68
2023-05-15T09:55:32.245Z,7.00
2023-05-15T09:58:11.103Z,7.82
2023-05-15T10:00:48.113Z,5.47
2023-05-15T10:03:19.072Z,5.03
2023-05-15T10:05:46.865Z,8.55
2023-05-15T10:08:15.980Z,9.45
2023-05-15T10:10:43.998Z,7.43
2023-05-15T10:13:12.073Z,9.80
2023-05-15T10:15:40.552Z,9.32
2023-05-15T10:18:08.962Z,10.13
2023-05-15T10:20:36.705Z,9.23
2023-05-15T10:23:06.341Z,8.63
2023-05-15T10:25:36.843Z,9.55
2023-05-15T10:28:04.635Z,10.77
2023-05-15T10:30:32.492Z,6.65
2023-05-15T10:33:00.539Z,9.02
2023-05-15T10:35:28.817Z,9.82
2023-05-15T10:37:56.578Z,9.88
2023-05-15T10:40:24.735Z,9.10
2023-05-15T10:42:52.652Z,7.93
2023-05-15T10:45:20.389Z,7.82
2023-05-15T10:47:48.376Z,7.65
2023-05-15T10:50:15.951Z,11.27
2023-05-15T10:52:43.612Z,9.20
2023-05-15T10:55:15.423Z,9.23
2023-05-15T10:57:43.747Z,7.95
2023-05-15T11:00:31.520Z,8.23
2023-05-15T11:02:59.420Z,9.07
2023-05-15T11:05:27.485Z,10.57
2023-05-15T11:08:13.775Z,9.57
2023-05-15T11:10:41.542Z,8.00
2023-05-15T11:13:09.029Z,9.35
2023-05-15T11:15:43.992Z,7.60
2023-05-15T11:18:11.749Z,8.60
2023-05-15T11:20:40.803Z,10.38
2023-05-15T11:23:08.474Z,11.07
2023-05-15T11:25:36.786Z,14.57
2023-05-15T11:28:05.742Z,7.00
2023-05-15T11:30:37.940Z,8.93
2023-05-15T11:33:11.503Z,8.70
2023-05-15T11:35:43.788Z,8.95
2023-05-15T11:38:11.355Z,8.38
2023-05-15T11:40:47.344Z,11.90
2023-05-15T11:43:17.895Z,10.43
2023-05-15T11:45:47.948Z,7.38
2023-05-15T11:48:16.727Z,7.53
2023-05-15T11:50:45.533Z,8.82
2023-05-15T11:53:13.353Z,8.23
2023-05-15T11:55:41.824Z,6.97
2023-05-15T11:58:13.750Z,8.60
2023-05-15T12:00:41.741Z,10.25
2023-05-15T12:03:29.190Z,6.68
2023-05-15T12:06:00.063Z,8.60
2023-05-15T12:08:32.683Z,6.07
2023-05-15T12:11:00.902Z,5.07
2023-05-15T12:13:28.899Z,7.38
2023-05-15T12:15:56.984Z,8.02
2023-05-15T12:18:24.712Z,6.20
2023-05-15T12:20:53.343Z,3.72
2023-05-15T12:23:22.080Z,5.43
2023-05-15T12:25:50.642Z,6.45
2023-05-15T12:28:18.637Z,8.38
2023-05-15T12:30:46.204Z,5.15
2023-05-15T12:33:15.053Z,6.70
2023-05-15T12:35:52.206Z,8.95
2023-05-15T12:38:22.034Z,4.78
2023-05-15T12:40:53.576Z,7.90
2023-05-15T12:43:24.966Z,5.22
2023-05-15T12:45:58.983Z,5.07
2023-05-15T12:48:33.073Z,8.45
2023-05-15T12:51:08.075Z,6.65
2023-05-15T12:53:36.430Z,6.07
2023-05-15T12:56:04.862Z,6.13
2023-05-15T12:58:32.573Z,4.57
2023-05-15T13:01:00.042Z,8.40
2023-05-15T13:03:28.028Z,4.72
2023-05-15T13:05:56.058Z,6.97
2023-05-15T13:08:23.515Z,5.65
2023-05-15T13:10:57.079Z,9.02
2023-05-15T13:13:24.802Z,5.68
2023-05-15T13:15:52.499Z,7.55
2023-05-15T13:18:19.820Z,7.65
2023-05-15T13:20:47.353Z,7.88
2023-05-15T13:23:16.301Z,7.63
2023-05-15T13:25:43.996Z,7.97
2023-05-15T13:28:11.935Z,11.65
2023-05-15T13:30:41.898Z,12.02
2023-05-15T13:33:13.687Z,9.43
2023-05-15T13:35:41.687Z,13.25
2023-05-15T13:38:11.751Z,11.25
2023-05-15T13:40:39.781Z,11.93
2023-05-15T13:43:07.404Z,10.68
2023-05-15T13:45:35.016Z,7.95
2023-05-15T13:48:02.730Z,7.95
2023-05-15T13:50:30.747Z,9.50
2023-05-15T13:52:58.510Z,9.10
2023-05-15T13:55:26.286Z,7.75
2023-05-15T13:57:53.797Z,8.45
2023-05-15T14:00:21.776Z,10.18
2023-05-15T14:02:49.325Z,9.70
2023-05-15T14:05:18.694Z,10.30
2023-05-15T14:07:46.254Z,9.63
2023-05-15T14:10:13.900Z,8.35
2023-05-15T14:12:44.644Z,8.68
2023-05-15T14:15:12.696Z,9.60
2023-05-15T14:17:40.856Z,9.18
2023-05-15T14:20:10.192Z,6.28
2023-05-15T14:22:37.959Z,5.35
2023-05-15T14:25:06.317Z,4.45
2023-05-15T14:27:33.902Z,4.47
2023-05-15T14:30:01.950Z,4.10
2023-05-15T14:32:29.587Z,3.33
2023-05-15T14:35:00.029Z,3.85
2023-05-15T14:37:28.483Z,4.05
2023-05-15T14:39:56.241Z,3.42
2023-05-15T14:42:23.739Z,6.07
2023-05-15T14:44:51.396Z,3.55
2023-05-15T14:47:19.310Z,3.47
2023-05-15T14:49:46.744Z,3.25
2023-05-15T14:52:14.209Z,3.55
2023-05-15T14:54:41.643Z,2.30
2023-05-15T14:57:09.562Z,4.90
2023-05-15T14:59:37.099Z,5.18
2023-05-15T15:02:04.544Z,5.95
2023-05-15T15:04:34.542Z,6.78
2023-05-15T15:07:05.464Z,7.45
2023-05-15T15:09:33.025Z,6.72
2023-05-15T15:12:00.735Z,7.53
2023-05-15T15:14:28.185Z,8.25
2023-05-15T15:16:57.506Z,8.75
2023-05-15T15:19:25.023Z,7.75
2023-05-15T15:21:52.516Z,6.45
2023-05-15T15:24:19.989Z,7.25
2023-05-15T15:26:47.426Z,16.88
2023-05-15T15:29:14.987Z,4.55
2023-05-15T15:31:42.630Z,6.05
2023-05-15T15:34:11.404Z,5.78
2023-05-15T15:36:40.100Z,5.88
2023-05-15T15:39:07.843Z,6.00
2023-05-15T15:41:38.898Z,7.45
2023-05-15T15:44:06.444Z,4.25
2023-05-15T15:46:33.866Z,6.93
2023-05-15T15:49:01.722Z,7.97
2023-05-15T15:51:30.622Z,5.90
2023-05-15T15:53:58.079Z,5.15
2023-05-15T15:56:25.488Z,4.65
2023-05-15T15:58:53.097Z,6.15
2023-05-15T16:01:21.665Z,4.30
2023-05-15T16:03:49.279Z,7.03
2023-05-15T16:06:16.891Z,6.03
2023-05-15T16:08:44.390Z,5.05
2023-05-15T16:11:11.816Z,5.95
2023-05-15T16:13:40.960Z,5.88
2023-05-15T16:16:10.007Z,5.05
2023-05-15T16:18:37.566Z,5.38
2023-05-15T16:21:05.014Z,5.40
2023-05-15T16:23:36.452Z,4.85
2023-05-15T16:26:04.908Z,5.45
2023-05-15T16:28:32.507Z,7.25
2023-05-15T16:31:00.300Z,6.82
2023-05-15T16:33:27.899Z,7.43
2023-05-15T16:35:55.418Z,7.35
2023-05-15T16:38:23.112Z,6.10
2023-05-15T16:40:50.584Z,5.40
2023-05-15T16:43:18.101Z,8.32
2023-05-15T16:45:46.366Z,6.30
2023-05-15T16:48:13.929Z,4.68
2023-05-15T16:50:41.485Z,5.22
2023-05-15T16:53:09.240Z,5.60
2023-05-15T16:55:37.024Z,4.70
2023-05-15T16:58:04.470Z,4.50
2023-05-15T17:00:32.120Z,7.15
2023-05-15T17:02:59.793Z,4.93
2023-05-15T17:05:27.512Z,4.30
2023-05-15T17:07:54.892Z,3.72
2023-05-15T17:10:22.433Z,10.02
2023-05-15T17:12:50.085Z,4.18
2023-05-15T17:15:17.571Z,4.88
2023-05-15T17:17:44.985Z,4.07
2023-05-15T17:20:12.757Z,4.70
2023-05-15T17:22:40.190Z,5.60
2023-05-15T17:25:08.368Z,4.10
2023-05-15T17:27:41.502Z,4.63
2023-05-15T17:30:10.630Z,2.92
2023-05-15T17:32:39.032Z,3.05
2023-05-15T17:35:07.039Z,7.22
2023-05-15T17:37:34.564Z,3.38
2023-05-15T17:40:02.100Z,2.72
2023-05-15T17:42:29.930Z,4.82
2023-05-15T17:44:57.956Z,6.43
2023-05-15T17:47:25.657Z,5.07
2023-05-15T17:49:53.183Z,5.25
2023-05-15T17:52:20.893Z,5.32
2023-05-15T17:54:48.577Z,6.18
2023-05-15T17:57:16.131Z,6.25
2023-05-15T17:59:43.549Z,5.28
2023-05-15T18:02:11.245Z,5.65
2023-05-15T18:04:38.914Z,3.85
2023-05-15T18:07:06.385Z,5.90
2023-05-15T18:09:33.974Z,5.00
2023-05-15T18:12:01.453Z,4.95
2023-05-15T18:14:29.132Z,8.60
2023-05-15T18:16:57.628Z,5.43
2023-05-15T18:19:25.147Z,7.30
2023-05-15T18:21:52.936Z,6.55
2023-05-15T18:24:20.452Z,7.97
2023-05-15T18:26:47.997Z,9.35
2023-05-15T18:29:15.401Z,3.95
2023-05-15T18:31:42.910Z,8.25
2023-05-15T18:34:10.437Z,6.57
2023-05-15T18:36:38.381Z,4.47
2023-05-15T18:39:05.885Z,6.57
2023-05-15T18:41:33.442Z,4.38
2023-05-15T18:44:01.170Z,6.05
2023-05-15T18:46:30.573Z,4.88
2023-05-15T18:48:58.068Z,4.07
2023-05-15T18:51:25.821Z,5.13
2023-05-15T18:53:53.317Z,4.88
2023-05-15T18:56:21.683Z,4.88
2023-05-15T18:58:49.173Z,7.88
2023-05-15T19:01:17.168Z,5.38
2023-05-15T19:03:44.914Z,7.28
2023-05-15T19:06:13.583Z,4.20
2023-05-15T19:08:41.242Z,5.32
2023-05-15T19:11:09.052Z,3.97
2023-05-15T19:13:36.709Z,3.70
2023-05-15T19:16:04.883Z,5.88
2023-05-15T19:18:32.636Z,6.57
2023-05-15T19:21:00.957Z,5.47
2023-05-15T19:23:28.610Z,5.97
2023-05-15T19:25:56.177Z,5.30
2023-05-15T19:28:23.688Z,5.22
2023-05-15T19:30:51.210Z,4.43
2023-05-15T19:33:18.687Z,7.18
2023-05-15T19:35:46.299Z,6.10
2023-05-15T19:38:13.914Z,4.82
2023-05-15T19:40:45.277Z,4.28
2023-05-15T19:43:14.252Z,5.15
2023-05-15T19:45:42.445Z,5.10
2023-05-15T19:48:11.132Z,5.55
2023-05-15T19:50:39.715Z,4.47
2023-05-15T19:53:07.587Z,5.10
2023-05-15T19:55:35.169Z,5.82
2023-05-15T19:58:02.780Z,7.25
2023-05-15T20:00:30.465Z,6.68
2023-05-15T20:02:58.330Z,8.63
2023-05-15T20:05:25.978Z,9.32
2023-05-15T20:07:53.548Z,7.97
2023-05-15T20:10:21.254Z,11.15
2023-05-15T20:12:48.784Z,8.70
2023-05-15T20:15:17.184Z,7.50
2023-05-15T20:17:44.685Z,7.63
2023-05-15T20:20:12.440Z,7.32
2023-05-15T20:22:42.134Z,6.00
2023-05-15T20:25:10.556Z,8.18
2023-05-15T20:27:38.113Z,9.05
2023-05-15T20:30:06.310Z,7.35
2023-05-15T20:32:33.955Z,7.63
2023-05-15T20:35:01.785Z,5.55
2023-05-15T20:37:31.127Z,7.82
2023-05-15T20:39:58.851Z,9.02
2023-05-15T20:42:28.053Z,6.57
2023-05-15T20:44:55.767Z,7.50
2023-05-15T20:47:23.413Z,6.65
2023-05-15T20:49:51.038Z,7.65
2023-05-15T20:52:18.546Z,7.53
2023-05-15T20:54:46.269Z,7.45
2023-05-15T20:57:13.723Z,8.35
2023-05-15T20:59:41.228Z,7.03
2023-05-15T21:02:08.784Z,7.25
2023-05-15T21:04:36.448Z,9.00
2023-05-15T21:07:04.515Z,11.95
2023-05-15T21:09:32.085Z,9.32
2023-05-15T21:12:00.053Z,9.13
2023-05-15T21:14:27.841Z,8.68
2023-05-15T21:16:55.454Z,10.80
2023-05-15T21:19:23.059Z,8.00
2023-05-15T21:21:50.785Z,10.13
2023-05-15T21:24:18.215Z,9.98
2023-05-15T21:26:46.016Z,10.13
2023-05-15T21:29:13.940Z,10.60
2023-05-15T21:31:42.677Z,8.40
2023-05-15T21:34:10.153Z,7.15
2023-05-15T21:36:37.594Z,7.28
2023-05-15T21:39:05.073Z,5.43
2023-05-15T21:41:32.471Z,7.03
2023-05-15T21:43:59.912Z,6.18
2023-05-15T21:46:27.309Z,5.35
2023-05-15T21:48:54.744Z,5.80
2023-05-15T21:51:22.102Z,6.32
2023-05-15T21:53:49.586Z,7.70
2023-05-15T21:56:17.121Z,12.55
2023-05-15T21:58:44.517Z,10.27
2023-05-15T22:01:12.083Z,9.30
2023-05-15T22:03:39.659Z,10.25
2023-05-15T22:06:07.421Z,13.20
2023-05-15T22:08:34.866Z,12.90
2023-05-15T22:11:03.595Z,14.48
2023-05-15T22:13:31.130Z,14.18
2023-05-15T22:15:58.538Z,16.95
2023-05-15T22:18:28.270Z,19.90
2023-05-15T22:20:56.284Z,15.27
2023-05-15T22:23:23.623Z,16.13
2023-05-15T22:25:51.489Z,14.05
2023-05-15T22:28:19.186Z,11.38
2023-05-15T22:30:46.613Z,9.73
2023-05-15T22:33:14.104Z,7.80
2023-05-15T22:35:41.637Z,7.45
2023-05-15T22:38:09.797Z,6.15
2023-05-15T22:40:37.255Z,7.10
2023-05-15T22:43:04.780Z,6.50
2023-05-15T22:45:32.427Z,9.57
2023-05-15T22:48:00.010Z,7.50
2023-05-15T22:50:27.871Z,8.80
2023-05-15T22:52:55.532Z,4.60
2023-05-15T22:55:23.063Z,6.18
2023-05-15T22:57:50.556Z,6.07
2023-05-15T23:00:18.417Z,6.05
2023-05-15T23:02:46.169Z,6.40
2023-05-15T23:05:13.658Z,7.95
2023-05-15T23:07:41.315Z,7.82
2023-05-15T23:10:09.434Z,6.13
2023-05-15T23:12:37.157Z,6.90
2023-05-15T23:15:04.952Z,7.05
2023-05-15T23:17:32.411Z,5.55
2023-05-15T23:20:00.300Z,5.75
2023-05-15T23:22:27.791Z,7.07
2023-05-15T23:24:55.156Z,5.97
2023-05-15T23:27:22.837Z,7.53
2023-05-15T23:29:50.242Z,5.90
2023-05-15T23:32:17.631Z,5.80
2023-05-15T23:34:45.234Z,6.85
2023-05-15T23:37:12.705Z,7.10
2023-05-15T23:39:40.072Z,6.57
2023-05-15T23:42:10.014Z,4.65
2023-05-15T23:44:37.637Z,5.05
2023-05-15T23:47:05.348Z,5.88
2023-05-15T23:49:33.647Z,4.03
2023-05-15T23:52:01.359Z,4.97
2023-05-15T23:54:28.859Z,6.07
2023-05-15T23:56:56.365Z,6.43
2023-05-15T23:59:23.810Z,6.88
